Castlegar/West Kootenay Regional Airport
CYCG : now visible

Airfield :











YOU CAN JOIN US ON...

 
LOGIN :

Register | Disclaimer

   EN    FR    IT 

 









Legend :    VFR   Marginal VFR   IFR   Intensive IFR   Very Intensive IFR
Visi :
Ceiling :
>= 8 km
>= 3000ft
5 to 8 km
1000 to 3000 ft
1500m to 5 km
500 to 1000 ft
800 to 1500m
200 to 500 ft
< 800m
< 200 ft
Symbols :   Thunderstorms  Fog  Heavy snow  Heavy precipitations  Wind > 20 kt







- Airport Elevation : 1624 ft
- IATA code : YCG


CYCG - Castlegar/West Kootenay Regional

CURRENT METAR :
  • 162241Z 18007KT 15SM FEW010 FEW022 BKN060 OVC080 15/13 A2978 RMK CF1SC2SC3AC3 CF TR SLP087 DENSITY ALT 2200FT

EXPIRED METARs :
  • 162200Z 17007KT 10SM -RA FEW008 SCT025 BKN065 OVC080 14/13 A2978 RMK CF1SC2SC3AC2 SLP087 DENSITY ALT 2100FT
  • 162100Z 18007KT 130V190 12SM -RA FEW012 SCT025 BKN050 OVC070 15/13 A2977 RMK CF1SC2SC3SC2 SLP085 DENSITY ALT 2200FT
  • 162000Z 16004KT 090V210 8SM -RA FEW010 SCT028 BKN050 BKN070 OVC086 15/13 A2977 RMK SF1SC2SC2AC2AC1 SLP084 DENSITY ALT 2200FT

TAF TAF CYCG
Valid from the 16 at 19:00 until the 17 at 04:00 UTC


161838Z 1619/1704 19005KT P6SM SCT020 BKN080
TEMPO 1619/1622 5SM -RA BR BKN020 OVC050
FM162200 18008KT P6SM -RA SCT012 OVC040
TEMPO 1622/1704 3SM -RA BR BKN012 OVC025 RMK NXT FCST BY 170100Z
No reported NOTAMs for that airfield.



MET'MAP, your aeronautical weather chart ! - Copyright ORBIFLY December 2007 - Disclaimer

ORBIFLY MET'MAP TEAM :

Programming & Development : Alexandra Zaïnal
Concept & Development : Baudouin d'Aumeries
Co-Development & Prog : Marc-Olivier Méhu
Technical & hardware support : Manuel Goepfert

Contact : metmap@orbifly.com




SOURCES & CREDITS :

   NOAA       Earth
Advisory